Time;durP1;ratioP1;P1;durP2;ratioP2;P2;SDS_P1;SDS_P2;PMS_P1;PMS_P2;Temp;Humidity;BMP_temperature;BMP_pressure;BME280_temperature;BME280_humidity;BME280_pressure;Samples;Min_cycle;Max_cycle;Signal;HPM_P1;HPM_P2
2022/10/09 00:01:28;;;;;;;17.30;9.77;;;7.30;89.20;;;;;;5094389;28;20025;-39
2022/10/09 00:03:55;;;;;;;12.98;8.45;;;7.30;89.30;;;;;;5094375;28;20467;-38
2022/10/09 00:06:27;;;;;;;16.38;9.18;;;7.20;89.20;;;;;;5094633;28;20028;-39
2022/10/09 00:08:52;;;;;;;19.77;9.60;;;7.20;89.20;;;;;;5094534;28;20021;-37
2022/10/09 00:11:21;;;;;;;21.08;9.68;;;7.30;89.30;;;;;;5094104;28;20032;-39
2022/10/09 00:13:47;;;;;;;21.98;8.75;;;7.20;89.30;;;;;;5094459;28;20020;-40
2022/10/09 00:16:14;;;;;;;24.13;9.20;;;7.20;89.30;;;;;;5094303;28;20410;-38
2022/10/09 00:18:41;;;;;;;16.52;8.68;;;7.20;89.30;;;;;;5094579;28;20020;-38
2022/10/09 00:21:21;;;;;;;17.60;9.57;;;7.20;89.30;;;;;;5093871;28;20030;-38
2022/10/09 00:23:47;;;;;;;12.90;7.65;;;7.30;89.30;;;;;;5094238;28;20552;-38
2022/10/09 00:26:15;;;;;;;18.92;8.27;;;7.20;89.30;;;;;;5092483;28;20038;-39
2022/10/09 00:28:41;;;;;;;17.20;9.25;;;7.20;89.30;;;;;;5094211;28;20507;-38
2022/10/09 00:31:08;;;;;;;17.23;8.43;;;7.20;89.40;;;;;;5094115;28;20035;-37
2022/10/09 00:33:35;;;;;;;18.80;9.27;;;7.20;89.30;;;;;;5093662;28;20501;-40
2022/10/09 00:36:03;;;;;;;24.17;10.93;;;7.20;89.20;;;;;;5094001;28;20103;-39
2022/10/09 00:38:29;;;;;;;22.92;9.18;;;7.10;89.00;;;;;;5094003;28;20125;-38
2022/10/09 00:40:54;;;;;;;22.73;9.90;;;7.00;89.00;;;;;;5093807;28;20073;-38
2022/10/09 00:43:44;;;;;;;18.67;8.77;;;7.00;89.20;;;;;;5092489;28;20491;-40
2022/10/09 00:46:40;;;;;;;22.10;8.82;;;7.00;89.30;;;;;;5093659;28;20095;-39
2022/10/09 00:49:38;;;;;;;13.38;7.47;;;6.90;89.30;;;;;;5089619;28;20032;-40
2022/10/09 00:52:06;;;;;;;19.15;7.82;;;6.90;89.30;;;;;;5059424;28;20372;-40
2022/10/09 00:54:35;;;;;;;24.25;8.45;;;6.80;89.20;;;;;;5093562;28;20444;-39
2022/10/09 00:57:01;;;;;;;15.73;6.90;;;6.80;89.30;;;;;;5094111;28;20024;-39
2022/10/09 00:59:28;;;;;;;20.77;8.57;;;6.80;89.40;;;;;;5093490;28;20472;-39
2022/10/09 01:01:54;;;;;;;22.73;8.52;;;6.80;89.50;;;;;;5091876;28;20024;-39
2022/10/09 01:04:19;;;;;;;15.32;7.03;;;6.80;89.60;;;;;;5093376;28;20028;-38
2022/10/09 01:07:26;;;;;;;18.85;7.95;;;6.80;89.60;;;;;;5093055;28;20099;-38
2022/10/09 01:10:11;;;;;;;22.23;9.07;;;6.80;89.70;;;;;;5090756;28;20498;-38
2022/10/09 01:12:47;;;;;;;15.40;7.40;;;6.80;89.60;;;;;;5092826;28;20040;-38
2022/10/09 01:15:23;;;;;;;18.23;8.00;;;6.80;89.50;;;;;;5094036;28;20024;-39
2022/10/09 01:18:02;;;;;;;16.70;7.32;;;6.90;89.40;;;;;;5093239;28;20376;-39
2022/10/09 01:20:34;;;;;;;18.52;7.88;;;6.80;89.10;;;;;;5092983;28;20017;-39
2022/10/09 01:23:27;;;;;;;17.27;7.50;;;6.80;89.20;;;;;;5093035;28;20024;-38
2022/10/09 01:25:57;;;;;;;14.70;6.25;;;6.70;89.30;;;;;;5093077;28;20028;-37
2022/10/09 01:28:27;;;;;;;16.55;7.75;;;6.70;89.40;;;;;;5093202;28;20165;-39
2022/10/09 01:30:56;;;;;;;14.00;7.20;;;6.70;89.50;;;;;;5093257;28;20039;-38
2022/10/09 01:33:22;;;;;;;15.18;7.13;;;6.70;89.60;;;;;;5093360;28;20046;-39
2022/10/09 01:35:48;;;;;;;18.27;7.80;;;6.70;89.70;;;;;;5097064;28;20028;-38
2022/10/09 01:38:15;;;;;;;17.23;6.97;;;6.70;89.70;;;;;;5097043;28;20024;-38
2022/10/09 01:40:41;;;;;;;12.45;7.30;;;6.70;89.60;;;;;;5096871;28;20032;-38
2022/10/09 01:43:07;;;;;;;11.70;5.75;;;6.60;89.50;;;;;;5097116;28;20028;-38
2022/10/09 01:45:41;;;;;;;11.52;6.95;;;6.60;89.50;;;;;;5096898;28;20028;-38
2022/10/09 01:48:13;;;;;;;21.02;6.93;;;6.50;89.60;;;;;;5095708;28;20036;-38
2022/10/09 01:50:51;;;;;;;12.77;6.25;;;6.50;89.60;;;;;;5097192;28;20039;-38
2022/10/09 01:53:19;;;;;;;19.40;7.10;;;6.50;89.60;;;;;;5097780;28;20058;-39
2022/10/09 01:56:10;;;;;;;12.43;5.60;;;6.40;89.60;;;;;;5097162;28;20471;-38
2022/10/09 01:58:47;;;;;;;11.55;6.10;;;6.40;89.60;;;;;;5096790;28;20052;-37
2022/10/09 02:01:17;;;;;;;19.90;7.57;;;6.40;89.60;;;;;;5096621;28;20036;-38
2022/10/09 02:03:46;;;;;;;13.55;7.13;;;6.40;89.70;;;;;;5096539;28;20467;-38
2022/10/09 02:06:14;;;;;;;16.95;6.78;;;6.50;89.60;;;;;;5096625;28;20036;-38
2022/10/09 02:08:42;;;;;;;11.45;6.95;;;6.40;89.50;;;;;;5096632;28;20028;-37
2022/10/09 02:11:10;;;;;;;17.95;7.25;;;6.30;89.50;;;;;;5096901;28;20035;-39
2022/10/09 02:13:36;;;;;;;12.80;6.90;;;6.30;89.70;;;;;;5096578;28;20040;-38
2022/10/09 02:16:17;;;;;;;16.52;6.65;;;6.30;89.70;;;;;;5096237;28;20023;-38
2022/10/09 02:18:47;;;;;;;16.20;6.38;;;6.30;89.80;;;;;;5096562;28;20471;-38
2022/10/09 02:21:22;;;;;;;13.70;6.60;;;6.30;89.80;;;;;;5096780;28;20035;-39
2022/10/09 02:23:49;;;;;;;20.27;6.95;;;6.20;89.90;;;;;;5097225;28;20510;-39
2022/10/09 02:26:16;;;;;;;14.15;6.55;;;6.20;90.00;;;;;;5096566;28;20035;-39
2022/10/09 02:28:42;;;;;;;14.45;8.35;;;6.20;90.00;;;;;;5097368;28;20531;-39
2022/10/09 02:31:31;;;;;;;15.40;6.60;;;6.20;90.10;;;;;;5097253;28;20054;-38
2022/10/09 02:34:01;;;;;;;12.93;6.38;;;6.20;90.20;;;;;;5096319;28;20024;-38
2022/10/09 02:36:28;;;;;;;;;;;6.20;90.10;;;;;;5095652;28;20020;-39
2022/10/09 02:38:54;;;;;;;14.30;5.88;;;6.20;90.20;;;;;;5096400;28;19999;-39
2022/10/09 02:41:21;;;;;;;15.40;7.30;;;6.20;90.20;;;;;;5096421;28;20024;-39
2022/10/09 02:43:46;;;;;;;16.45;7.55;;;6.20;90.20;;;;;;5095474;28;20024;-39
2022/10/09 02:46:12;;;;;;;12.52;6.35;;;6.20;90.30;;;;;;5096114;28;20023;-40
2022/10/09 02:48:38;;;;;;;18.48;6.80;;;6.20;90.30;;;;;;5096098;28;20024;-40
2022/10/09 02:51:04;;;;;;;11.80;6.20;;;6.30;90.50;;;;;;5096654;28;20027;-38
2022/10/09 02:53:29;;;;;;;17.50;6.53;;;6.30;90.40;;;;;;5096261;28;20535;-38
2022/10/09 02:55:55;;;;;;;12.88;6.53;;;6.20;90.40;;;;;;5094738;28;20058;-38
2022/10/09 02:58:21;;;;;;;12.73;7.55;;;6.30;90.20;;;;;;5096197;28;20105;-38
2022/10/09 03:00:51;;;;;;;15.05;7.90;;;6.30;89.70;;;;;;5095544;28;20484;-38
2022/10/09 03:03:18;;;;;;;11.23;6.30;;;6.20;89.40;;;;;;5094194;28;20042;-39
2022/10/09 03:05:44;;;;;;;12.05;7.45;;;6.10;89.60;;;;;;5095664;28;20036;-38
2022/10/09 03:08:09;;;;;;;13.65;7.50;;;6.10;89.70;;;;;;5095324;28;20077;-39
2022/10/09 03:10:39;;;;;;;14.43;6.95;;;6.00;89.70;;;;;;5094088;28;20031;-38
2022/10/09 03:13:05;;;;;;;11.98;7.18;;;6.00;89.80;;;;;;5095216;28;20055;-38
2022/10/09 03:15:35;;;;;;;15.85;7.57;;;5.90;89.70;;;;;;5096301;28;20471;-38
2022/10/09 03:18:01;;;;;;;19.10;6.78;;;5.80;89.80;;;;;;5095551;28;20077;-39
2022/10/09 03:20:29;;;;;;;15.52;7.22;;;5.80;89.70;;;;;;5095348;28;20052;-39
2022/10/09 03:22:55;;;;;;;10.57;6.22;;;5.80;89.80;;;;;;5094909;28;20432;-38
2022/10/09 03:25:21;;;;;;;15.75;6.88;;;5.80;89.90;;;;;;5095005;28;20031;-38
2022/10/09 03:27:47;;;;;;;9.63;6.38;;;5.80;89.90;;;;;;5095179;28;20348;-38
2022/10/09 03:30:13;;;;;;;11.85;6.85;;;5.80;90.00;;;;;;5094982;28;20051;-42
2022/10/09 03:32:38;;;;;;;16.95;6.88;;;5.90;90.10;;;;;;5094976;28;20032;-39
2022/10/09 03:35:04;;;;;;;12.93;6.68;;;5.80;90.00;;;;;;5094772;28;20102;-39
2022/10/09 03:37:30;;;;;;;12.60;7.78;;;5.80;90.00;;;;;;5094824;28;20024;-39
2022/10/09 03:39:57;;;;;;;15.98;7.00;;;5.80;89.90;;;;;;5094915;28;20150;-39
2022/10/09 03:42:22;;;;;;;16.50;7.38;;;5.80;90.00;;;;;;5095910;28;20028;-38
2022/10/09 03:44:48;;;;;;;17.75;7.45;;;5.80;90.10;;;;;;5095153;28;20031;-37
2022/10/09 03:47:14;;;;;;;20.70;7.97;;;5.80;90.20;;;;;;5094679;28;20114;-40
2022/10/09 03:49:39;;;;;;;18.85;6.68;;;5.90;90.20;;;;;;5094524;28;20050;-37
2022/10/09 03:52:05;;;;;;;11.75;7.07;;;5.90;90.30;;;;;;5093049;28;20035;-39
2022/10/09 03:54:30;;;;;;;12.45;6.30;;;5.80;90.10;;;;;;5095026;28;20028;-37
2022/10/09 03:56:56;;;;;;;12.15;7.00;;;5.80;90.20;;;;;;5094388;28;20024;-45
2022/10/09 03:59:21;;;;;;;14.60;7.25;;;5.80;90.30;;;;;;5094616;28;20028;-37
2022/10/09 04:01:47;;;;;;;13.57;6.72;;;5.80;90.20;;;;;;5094601;28;20026;-37
2022/10/09 04:04:13;;;;;;;17.88;7.63;;;5.80;90.00;;;;;;5094432;28;20020;-37
2022/10/09 04:06:38;;;;;;;12.57;6.63;;;5.80;90.00;;;;;;5094558;28;20544;-37
2022/10/09 04:09:04;;;;;;;11.80;6.90;;;5.80;89.80;;;;;;5094425;28;20020;-38
2022/10/09 04:11:30;;;;;;;11.35;6.75;;;5.60;89.60;;;;;;5093822;28;20050;-42
2022/10/09 04:13:55;;;;;;;14.75;7.78;;;5.60;89.70;;;;;;5094137;28;20016;-38
2022/10/09 04:16:21;;;;;;;11.27;5.93;;;5.50;89.70;;;;;;5094070;28;20030;-38
2022/10/09 04:18:47;;;;;;;15.60;6.18;;;5.50;89.80;;;;;;5094024;28;20107;-37
2022/10/09 04:21:13;;;;;;;12.20;7.03;;;5.50;89.90;;;;;;5094367;28;20027;-37
2022/10/09 04:23:38;;;;;;;14.68;5.75;;;5.50;90.00;;;;;;5094131;28;20476;-38
2022/10/09 04:26:05;;;;;;;9.95;5.65;;;5.60;90.10;;;;;;5093867;28;20032;-38
2022/10/09 04:28:31;;;;;;;13.18;6.43;;;5.60;90.00;;;;;;5093759;28;20262;-38
2022/10/09 04:30:57;;;;;;;13.98;7.53;;;5.50;90.00;;;;;;5094063;28;20082;-38
2022/10/09 04:33:25;;;;;;;15.65;6.65;;;5.50;90.10;;;;;;5094050;28;20418;-38
2022/10/09 04:35:53;;;;;;;19.23;6.95;;;5.50;90.20;;;;;;5092137;28;20020;-38
2022/10/09 04:38:19;;;;;;;10.95;6.05;;;5.50;90.30;;;;;;5093878;28;20012;-38
2022/10/09 04:41:00;;;;;;;18.92;7.03;;;5.50;90.40;;;;;;5093782;28;20069;-39
2022/10/09 04:43:26;;;;;;;12.27;5.88;;;5.60;90.40;;;;;;5093688;28;20388;-40
2022/10/09 04:45:52;;;;;;;17.75;6.57;;;5.50;90.50;;;;;;5092145;28;20055;-38
2022/10/09 04:48:17;;;;;;;17.75;6.68;;;5.50;90.50;;;;;;5093559;28;20059;-38
2022/10/09 04:50:43;;;;;;;11.80;6.10;;;5.40;90.50;;;;;;5093619;28;20036;-38
2022/10/09 04:53:09;;;;;;;10.23;6.00;;;5.40;90.60;;;;;;5092945;28;20337;-38
2022/10/09 04:55:38;;;;;;;10.85;6.18;;;5.40;90.70;;;;;;5093626;28;20028;-37
2022/10/09 04:58:05;;;;;;;12.73;6.22;;;5.40;90.80;;;;;;5075391;28;20023;-37
2022/10/09 05:00:30;;;;;;;14.82;6.03;;;5.40;91.00;;;;;;5093716;28;20418;-38
2022/10/09 05:02:56;;;;;;;13.50;6.10;;;5.50;91.10;;;;;;5093652;28;20044;-39
2022/10/09 05:05:22;;;;;;;16.00;5.93;;;5.40;90.90;;;;;;5093167;28;20032;-38
2022/10/09 05:07:47;;;;;;;16.20;6.30;;;5.40;91.10;;;;;;5093186;28;20098;-38
2022/10/09 05:10:13;;;;;;;12.48;6.05;;;5.40;91.10;;;;;;5093399;28;20028;-38
2022/10/09 05:12:39;;;;;;;17.27;6.32;;;5.40;91.20;;;;;;5092962;28;20036;-38
2022/10/09 05:15:05;;;;;;;17.05;7.90;;;5.40;91.30;;;;;;5093054;28;20028;-38
2022/10/09 05:17:31;;;;;;;23.42;6.63;;;5.50;91.30;;;;;;5093410;28;20032;-38
2022/10/09 05:19:56;;;;;;;16.20;7.10;;;5.50;91.20;;;;;;5093069;28;20099;-38
2022/10/09 05:22:22;;;;;;;15.13;6.05;;;5.30;91.00;;;;;;5091761;28;20024;-38
2022/10/09 05:24:47;;;;;;;11.27;7.75;;;5.30;91.00;;;;;;5093111;28;20028;-38
2022/10/09 17:09:54;;;;;;;6.53;3.30;;;13.90;56.10;;;;;;4985073;27;4768358;-39
2022/10/09 17:12:19;;;;;;;6.47;3.15;;;13.80;56.40;;;;;;5131188;28;20055;-38
2022/10/09 17:14:46;;;;;;;9.48;3.42;;;13.80;56.60;;;;;;5130361;28;20428;-39
2022/10/09 17:17:12;;;;;;;7.03;3.28;;;13.80;56.70;;;;;;5114057;28;20114;-38
2022/10/09 17:19:38;;;;;;;6.88;3.47;;;13.80;56.80;;;;;;5131705;28;20455;-39
2022/10/09 17:22:06;;;;;;;6.82;2.75;;;13.70;56.80;;;;;;5117099;28;20035;-40
2022/10/09 17:24:32;;;;;;;11.05;3.83;;;13.70;56.60;;;;;;5114831;28;20046;-48
2022/10/09 17:26:59;;;;;;;7.38;2.85;;;13.70;56.70;;;;;;5132741;28;20379;-48
2022/10/09 17:29:28;;;;;;;9.40;4.38;;;13.70;56.80;;;;;;5131340;28;20027;-51
2022/10/09 17:31:53;;;;;;;12.02;3.22;;;13.60;57.10;;;;;;5113274;28;20024;-48
2022/10/09 17:34:19;;;;;;;9.75;5.45;;;13.50;57.30;;;;;;5132387;28;20026;-40
2022/10/09 17:36:45;;;;;;;9.40;3.97;;;13.50;57.10;;;;;;5131034;28;20055;-41
2022/10/09 17:39:14;;;;;;;11.48;5.20;;;13.40;57.40;;;;;;5127400;28;20475;-49
2022/10/09 17:41:39;;;;;;;7.43;3.13;;;13.30;57.70;;;;;;5111044;28;20030;-50
2022/10/09 17:44:09;;;;;;;8.05;3.65;;;13.30;57.80;;;;;;5114093;28;20444;-52
2022/10/09 17:46:35;;;;;;;13.30;6.40;;;13.30;58.10;;;;;;5113150;28;20099;-49
2022/10/09 17:49:00;;;;;;;9.55;4.43;;;13.30;58.60;;;;;;5112491;28;20493;-47
2022/10/09 17:51:27;;;;;;;7.88;3.10;;;13.10;59.10;;;;;;5111566;28;20047;-48
2022/10/09 17:53:56;;;;;;;6.75;3.33;;;13.00;59.20;;;;;;5110313;28;20020;-47
2022/10/09 17:56:22;;;;;;;6.22;3.47;;;13.00;59.20;;;;;;5111050;28;20073;-50
2022/10/09 17:58:48;;;;;;;8.98;3.50;;;12.90;59.70;;;;;;5110476;28;20464;-50
2022/10/09 18:01:15;;;;;;;8.70;4.45;;;12.90;60.20;;;;;;5110750;28;20024;-47
2022/10/09 18:03:42;;;;;;;11.45;5.13;;;12.80;60.40;;;;;;5110165;28;20388;-48
2022/10/09 18:06:10;;;;;;;12.65;5.90;;;12.80;61.00;;;;;;5110478;28;20028;-51
2022/10/09 18:08:37;;;;;;;6.28;3.78;;;12.70;61.70;;;;;;5110335;28;20446;-50
2022/10/09 18:11:06;;;;;;;7.65;3.58;;;12.60;61.70;;;;;;5110240;28;20028;-48
2022/10/09 18:13:33;;;;;;;11.00;4.87;;;12.60;61.60;;;;;;5110670;28;20023;-49
2022/10/09 18:15:58;;;;;;;8.30;3.45;;;12.50;62.10;;;;;;5110110;28;20020;-49
2022/10/09 18:18:24;;;;;;;7.10;3.42;;;12.60;61.60;;;;;;5110225;28;20042;-48
2022/10/09 18:20:50;;;;;;;7.57;3.28;;;12.60;61.50;;;;;;5098957;28;20032;-49
2022/10/09 18:23:15;;;;;;;10.27;3.13;;;12.60;61.50;;;;;;5095971;28;20104;-47
2022/10/09 18:25:43;;;;;;;7.20;3.97;;;12.60;61.50;;;;;;5096633;28;20488;-49
2022/10/09 18:28:09;;;;;;;7.60;2.88;;;12.60;61.70;;;;;;5096573;28;20020;-48
2022/10/09 18:30:40;;;;;;;8.43;2.40;;;12.50;61.80;;;;;;5096321;28;20024;-48
2022/10/09 18:33:06;;;;;;;5.30;2.75;;;12.60;61.70;;;;;;5097120;28;20016;-48
2022/10/09 18:35:35;;;;;;;6.60;2.85;;;12.50;61.90;;;;;;5095920;28;20024;-48
2022/10/09 18:38:01;;;;;;;2.45;1.67;;;12.60;61.90;;;;;;5096392;28;20055;-47
2022/10/09 18:40:26;;;;;;;4.75;1.65;;;12.50;62.10;;;;;;5096217;28;20032;-49
2022/10/09 18:42:52;;;;;;;4.05;2.20;;;12.40;62.40;;;;;;5096302;28;20043;-48
2022/10/09 18:45:18;;;;;;;5.18;2.20;;;12.40;62.50;;;;;;5098027;28;20020;-49
2022/10/09 18:47:44;;;;;;;5.45;2.72;;;12.40;62.60;;;;;;5077735;28;20039;-47
2022/10/09 18:50:12;;;;;;;3.38;2.22;;;12.30;62.60;;;;;;5095583;28;20103;-47
2022/10/09 18:52:40;;;;;;;4.10;3.08;;;12.30;62.90;;;;;;5095814;28;20429;-48
2022/10/09 18:55:09;;;;;;;6.30;3.10;;;12.30;63.20;;;;;;5095818;28;20020;-48
2022/10/09 18:57:37;;;;;;;3.92;2.25;;;12.20;63.40;;;;;;5095846;28;20027;-50
2022/10/09 19:00:04;;;;;;;8.60;2.42;;;12.20;63.60;;;;;;5095865;28;20532;-46
2022/10/09 19:02:30;;;;;;;7.93;3.83;;;12.10;63.90;;;;;;5095816;28;20074;-49
2022/10/09 19:04:56;;;;;;;4.22;2.55;;;12.00;64.30;;;;;;5095538;28;20165;-47
2022/10/09 19:07:22;;;;;;;7.90;3.05;;;11.90;64.50;;;;;;5095690;28;20030;-47
2022/10/09 19:09:48;;;;;;;3.63;2.67;;;11.90;64.90;;;;;;5094976;28;20075;-55
2022/10/09 19:12:18;;;;;;;9.10;4.05;;;11.80;65.30;;;;;;5078095;28;20457;-47
2022/10/09 19:14:45;;;;;;;8.05;4.00;;;11.80;65.50;;;;;;5095312;28;20032;-47
2022/10/09 19:17:11;;;;;;;11.38;5.03;;;11.70;65.70;;;;;;5095459;28;20531;-47
2022/10/09 19:19:39;;;;;;;7.43;3.60;;;11.70;65.80;;;;;;5095783;28;20030;-49
2022/10/09 19:22:06;;;;;;;8.43;4.13;;;11.70;66.00;;;;;;5095314;28;20535;-47
2022/10/09 19:24:33;;;;;;;7.45;3.92;;;11.60;66.00;;;;;;5096260;28;20066;-39
2022/10/09 19:26:59;;;;;;;6.35;2.97;;;11.60;66.50;;;;;;5096636;28;20032;-39
2022/10/09 19:29:25;;;;;;;11.73;4.70;;;11.60;66.50;;;;;;5096692;28;20106;-40
2022/10/09 19:31:52;;;;;;;6.00;3.65;;;11.50;66.50;;;;;;5094410;28;20119;-40
2022/10/09 19:34:18;;;;;;;5.70;3.78;;;11.50;66.70;;;;;;5095098;28;20353;-39
2022/10/09 19:36:48;;;;;;;5.65;3.65;;;11.40;67.40;;;;;;5095536;28;20073;-53
2022/10/09 19:39:14;;;;;;;7.38;3.30;;;11.30;67.70;;;;;;5097456;28;20047;-48
2022/10/09 19:41:41;;;;;;;6.90;4.03;;;11.30;68.10;;;;;;5099332;28;20032;-47
2022/10/09 19:44:07;;;;;;;12.35;4.82;;;11.20;68.40;;;;;;5096793;28;20020;-48
2022/10/09 19:46:36;;;;;;;5.82;4.05;;;11.10;68.90;;;;;;5077949;28;20032;-48
2022/10/09 19:49:02;;;;;;;10.43;3.78;;;11.00;69.50;;;;;;5095591;28;20054;-50
2022/10/09 19:51:28;;;;;;;10.10;4.47;;;10.90;69.80;;;;;;5096302;28;20020;-54
2022/10/09 19:53:54;;;;;;;6.90;4.63;;;10.80;70.20;;;;;;5097028;28;20017;-48
2022/10/09 19:56:32;;;;;;;8.20;4.15;;;10.80;70.60;;;;;;5079031;28;20051;-48
2022/10/09 19:59:01;;;;;;;11.18;5.47;;;10.70;71.00;;;;;;5096328;28;20024;-47
2022/10/09 20:01:27;;;;;;;8.32;5.15;;;10.70;71.30;;;;;;5078856;28;20383;-48
2022/10/09 20:03:55;;;;;;;8.32;4.47;;;10.60;71.60;;;;;;5096019;28;20031;-49
2022/10/09 20:06:21;;;;;;;9.52;4.93;;;10.60;71.90;;;;;;5077395;28;20028;-48
2022/10/09 20:08:47;;;;;;;12.02;6.65;;;10.50;72.00;;;;;;5094361;28;20542;-48
2022/10/09 20:11:12;;;;;;;10.70;6.13;;;10.50;72.30;;;;;;5094210;28;20034;-47
2022/10/09 20:13:40;;;;;;;13.10;5.40;;;10.50;72.60;;;;;;5076532;28;20115;-38
2022/10/09 20:16:09;;;;;;;9.68;5.25;;;10.40;72.80;;;;;;5078873;28;20028;-39
2022/10/09 20:18:38;;;;;;;7.80;5.55;;;10.30;73.10;;;;;;5095944;28;20034;-38
2022/10/09 20:21:04;;;;;;;12.13;6.07;;;10.30;73.40;;;;;;5094220;28;20024;-39
2022/10/09 20:23:29;;;;;;;9.35;6.15;;;10.30;73.70;;;;;;5094281;28;20116;-39
2022/10/09 20:26:07;;;;;;;10.35;6.38;;;10.30;73.80;;;;;;5093799;28;20115;-38
2022/10/09 20:28:34;;;;;;;11.32;5.82;;;10.20;74.30;;;;;;5076124;28;20035;-38
2022/10/09 20:31:05;;;;;;;12.48;6.80;;;10.10;74.60;;;;;;5093685;28;20020;-39
2022/10/09 20:33:31;;;;;;;11.35;7.13;;;10.00;74.90;;;;;;5094183;28;20077;-38
2022/10/09 20:35:57;;;;;;;13.05;6.43;;;10.00;75.20;;;;;;5075839;28;20028;-37
2022/10/09 20:38:22;;;;;;;11.85;6.60;;;9.90;75.50;;;;;;5093679;28;20062;-40
2022/10/09 20:40:48;;;;;;;14.10;7.18;;;9.90;75.60;;;;;;5075771;28;20086;-39
2022/10/09 20:43:14;;;;;;;11.68;7.13;;;9.90;75.60;;;;;;5093490;28;20024;-39
2022/10/09 20:45:40;;;;;;;12.50;6.40;;;9.80;75.70;;;;;;5093731;28;20016;-41
2022/10/09 20:48:06;;;;;;;9.68;5.85;;;9.80;76.10;;;;;;5093853;28;20027;-38
2022/10/09 20:50:40;;;;;;;13.25;6.57;;;9.80;76.30;;;;;;5075776;28;20109;-41
2022/10/09 20:53:08;;;;;;;8.13;6.03;;;9.80;76.40;;;;;;5093992;28;20477;-39
2022/10/09 20:55:34;;;;;;;9.52;5.72;;;9.70;76.60;;;;;;5093681;28;20423;-41
2022/10/09 20:58:01;;;;;;;9.80;5.53;;;9.70;76.70;;;;;;5093505;28;20129;-40
2022/10/09 21:00:28;;;;;;;11.75;5.40;;;9.70;76.80;;;;;;5075286;28;20487;-39
2022/10/09 21:02:54;;;;;;;9.18;5.75;;;9.70;77.00;;;;;;5093400;28;20120;-38
2022/10/09 21:05:22;;;;;;;9.50;6.10;;;9.60;77.00;;;;;;5093562;28;20046;-38
2022/10/09 21:07:48;;;;;;;9.35;5.35;;;9.60;77.00;;;;;;5093401;28;20016;-39
2022/10/09 21:10:14;;;;;;;13.75;5.03;;;9.50;77.10;;;;;;5093545;28;20027;-39
2022/10/09 21:12:40;;;;;;;7.40;5.43;;;9.50;77.30;;;;;;5093859;28;20021;-40
2022/10/09 21:15:06;;;;;;;10.18;4.97;;;9.60;77.20;;;;;;5093420;28;20063;-39
2022/10/09 21:17:32;;;;;;;8.98;5.65;;;9.50;77.30;;;;;;5075357;28;20020;-39
2022/10/09 21:19:58;;;;;;;11.43;5.88;;;9.50;77.60;;;;;;5074801;28;20093;-39
2022/10/09 21:22:24;;;;;;;10.60;5.18;;;9.40;77.90;;;;;;5093334;28;20107;-40
2022/10/09 21:24:50;;;;;;;8.75;5.20;;;9.40;77.90;;;;;;5093671;28;20020;-40
2022/10/09 21:27:16;;;;;;;9.93;5.35;;;9.30;78.20;;;;;;5093910;28;20108;-40
2022/10/09 21:29:42;;;;;;;8.30;5.25;;;9.30;78.30;;;;;;5093394;28;20024;-40
2022/10/09 21:32:08;;;;;;;10.52;6.80;;;9.30;78.50;;;;;;5093353;28;20357;-39
2022/10/09 21:34:35;;;;;;;8.10;4.85;;;9.20;78.70;;;;;;5093763;28;20077;-40
2022/10/09 21:37:01;;;;;;;8.85;4.93;;;9.20;79.10;;;;;;5094062;28;20103;-40
2022/10/09 21:39:27;;;;;;;6.07;4.53;;;9.20;79.20;;;;;;5093876;28;20055;-39
2022/10/09 21:41:53;;;;;;;9.35;4.63;;;9.10;79.30;;;;;;5094001;28;20336;-38
2022/10/09 21:44:19;;;;;;;9.38;4.93;;;9.10;79.40;;;;;;5093420;28;20077;-40
2022/10/09 21:46:44;;;;;;;8.98;4.93;;;9.10;79.60;;;;;;5096474;28;20078;-39
2022/10/09 21:49:27;;;;;;;6.80;4.15;;;9.10;79.70;;;;;;5079502;28;20050;-40
2022/10/09 21:51:53;;;;;;;8.27;4.90;;;9.10;79.70;;;;;;5094748;28;20103;-40
2022/10/09 21:54:19;;;;;;;8.02;4.75;;;9.00;79.80;;;;;;5075954;28;20081;-38
2022/10/09 21:56:45;;;;;;;9.32;5.63;;;9.00;79.90;;;;;;5097788;28;20021;-39
2022/10/09 21:59:11;;;;;;;9.32;5.30;;;8.90;80.00;;;;;;5080481;28;20494;-38
2022/10/09 22:01:37;;;;;;;6.95;5.00;;;8.90;80.20;;;;;;5098629;28;20035;-39
2022/10/09 22:04:03;;;;;;;10.10;6.53;;;8.80;80.40;;;;;;5098235;28;20025;-40
2022/10/09 22:06:28;;;;;;;12.07;4.32;;;8.80;80.40;;;;;;5097791;28;20533;-40
2022/10/09 22:08:54;;;;;;;7.28;4.22;;;8.90;80.50;;;;;;5096460;28;20036;-40
2022/10/09 22:11:23;;;;;;;5.18;4.22;;;8.90;80.60;;;;;;5096903;28;20024;-47
2022/10/09 22:13:48;;;;;;;8.38;4.47;;;8.90;80.50;;;;;;5078496;28;20097;-38
2022/10/09 22:16:14;;;;;;;9.77;4.97;;;8.90;80.40;;;;;;5096859;28;20020;-46
2022/10/09 22:18:40;;;;;;;6.53;4.53;;;8.90;80.40;;;;;;5096903;28;20056;-38
2022/10/09 22:21:10;;;;;;;10.75;5.35;;;8.90;80.50;;;;;;5078441;28;20024;-40
2022/10/09 22:23:36;;;;;;;7.32;4.93;;;8.90;80.50;;;;;;5096748;28;20049;-38
2022/10/09 22:26:07;;;;;;;9.98;5.00;;;8.80;80.70;;;;;;5096410;28;20032;-38
2022/10/09 22:28:33;;;;;;;;;;;8.80;80.90;;;;;;5096916;28;20039;-37
2022/10/09 22:31:04;;;;;;;9.43;4.63;;;8.80;80.80;;;;;;5096489;28;19904;-39
2022/10/09 22:33:30;;;;;;;10.40;4.90;;;8.80;81.00;;;;;;5096901;28;20035;-38
2022/10/09 22:36:08;;;;;;;10.15;5.65;;;8.80;81.10;;;;;;5096912;28;20028;-40
2022/10/09 22:38:35;;;;;;;7.78;4.53;;;8.80;81.30;;;;;;5096326;28;20055;-40
2022/10/09 22:41:20;;;;;;;14.45;5.70;;;8.80;81.40;;;;;;5077678;28;20502;-39
2022/10/09 22:43:49;;;;;;;9.30;5.03;;;8.70;81.60;;;;;;5061218;28;20039;-39
2022/10/09 22:46:21;;;;;;;8.45;4.95;;;8.70;81.70;;;;;;5097543;28;20415;-39
2022/10/09 22:48:47;;;;;;;7.75;5.03;;;8.70;81.80;;;;;;5097586;28;20372;-39
2022/10/09 22:51:15;;;;;;;8.45;5.10;;;8.70;82.00;;;;;;5097376;28;20020;-39
2022/10/09 22:53:41;;;;;;;9.55;6.25;;;8.70;82.00;;;;;;5096335;28;20059;-39
2022/10/09 22:56:12;;;;;;;8.93;4.93;;;8.60;82.10;;;;;;5097365;28;20421;-39
2022/10/09 22:58:37;;;;;;;16.35;5.10;;;8.60;82.20;;;;;;5096791;28;20040;-39
2022/10/09 23:01:06;;;;;;;12.18;5.80;;;8.50;82.40;;;;;;5095858;28;20031;-39
2022/10/09 23:03:32;;;;;;;9.55;5.78;;;8.50;82.60;;;;;;5096232;28;20052;-40
2022/10/09 23:06:14;;;;;;;11.88;5.80;;;8.50;82.70;;;;;;5095853;28;20056;-40
2022/10/09 23:08:41;;;;;;;9.55;5.25;;;8.50;82.70;;;;;;5095588;28;20036;-40
2022/10/09 23:11:08;;;;;;;8.68;6.32;;;8.50;82.80;;;;;;5077249;28;20067;-40
2022/10/09 23:13:34;;;;;;;12.73;6.07;;;8.50;82.70;;;;;;5095537;28;20032;-40
2022/10/09 23:16:01;;;;;;;9.10;5.75;;;8.40;82.80;;;;;;5095701;28;20106;-40
2022/10/09 23:18:27;;;;;;;12.85;5.35;;;8.50;82.90;;;;;;5095235;28;20039;-40
2022/10/09 23:20:53;;;;;;;11.18;5.22;;;8.50;82.90;;;;;;5095323;28;20480;-39
2022/10/09 23:23:19;;;;;;;10.70;5.97;;;8.40;82.90;;;;;;5095089;28;20039;-38
2022/10/09 23:25:44;;;;;;;8.63;5.55;;;8.50;82.80;;;;;;5094860;28;20027;-38
2022/10/09 23:28:10;;;;;;;11.23;5.07;;;8.50;82.80;;;;;;5094915;28;20039;-38
2022/10/09 23:30:36;;;;;;;9.32;5.32;;;8.40;82.90;;;;;;5095328;28;20329;-38
2022/10/09 23:33:01;;;;;;;7.82;5.13;;;8.50;82.80;;;;;;5095005;28;20035;-39
2022/10/09 23:35:27;;;;;;;6.43;4.63;;;8.50;82.80;;;;;;5094748;28;20024;-38
2022/10/09 23:37:52;;;;;;;10.57;5.43;;;8.50;82.70;;;;;;5076461;28;20020;-39
2022/10/09 23:40:18;;;;;;;12.02;5.82;;;8.40;82.80;;;;;;5094671;28;20032;-38
2022/10/09 23:42:44;;;;;;;8.02;4.93;;;8.40;82.90;;;;;;5094593;28;20156;-39
2022/10/09 23:45:10;;;;;;;8.27;5.10;;;8.40;82.90;;;;;;5096973;28;20024;-38
2022/10/09 23:47:36;;;;;;;9.35;4.82;;;8.40;83.00;;;;;;5094721;28;20031;-38
2022/10/09 23:50:03;;;;;;;8.05;4.95;;;8.40;83.00;;;;;;5094608;28;20027;-38
2022/10/09 23:52:29;;;;;;;14.15;5.65;;;8.30;83.10;;;;;;5094355;28;20016;-44
2022/10/09 23:54:54;;;;;;;8.57;4.50;;;8.30;83.10;;;;;;5094364;28;20088;-38
2022/10/09 23:57:20;;;;;;;8.48;5.03;;;8.30;83.20;;;;;;5094327;28;20498;-39
2022/10/09 23:59:45;;;;;;;13.10;5.07;;;8.30;83.40;;;;;;5094549;28;20028;-39
